sensor_id;sensor_type;location;lat;lon;timestamp;P1;durP1;ratioP1;P2;durP2;ratioP2
10050;SDS011;5065;46.942;7.432;2023-11-18T00:02:10;0.93;;;0.70;;
10050;SDS011;5065;46.942;7.432;2023-11-18T00:04:38;1.67;;;0.90;;
10050;SDS011;5065;46.942;7.432;2023-11-18T00:07:06;1.35;;;0.82;;
10050;SDS011;5065;46.942;7.432;2023-11-18T00:09:33;1.00;;;0.70;;
10050;SDS011;5065;46.942;7.432;2023-11-18T00:12:02;1.15;;;0.80;;
10050;SDS011;5065;46.942;7.432;2023-11-18T00:14:31;0.90;;;0.70;;
10050;SDS011;5065;46.942;7.432;2023-11-18T00:16:58;1.27;;;0.90;;
10050;SDS011;5065;46.942;7.432;2023-11-18T00:19:27;2.30;;;1.17;;
10050;SDS011;5065;46.942;7.432;2023-11-18T00:21:55;1.00;;;0.80;;
10050;SDS011;5065;46.942;7.432;2023-11-18T00:24:22;3.20;;;1.00;;
10050;SDS011;5065;46.942;7.432;2023-11-18T00:26:50;1.13;;;0.90;;
10050;SDS011;5065;46.942;7.432;2023-11-18T00:29:17;1.08;;;0.80;;
10050;SDS011;5065;46.942;7.432;2023-11-18T00:31:47;1.47;;;1.07;;
10050;SDS011;5065;46.942;7.432;2023-11-18T00:34:14;4.90;;;1.40;;
10050;SDS011;5065;46.942;7.432;2023-11-18T00:36:41;1.92;;;1.45;;
10050;SDS011;5065;46.942;7.432;2023-11-18T00:39:08;2.40;;;1.40;;
10050;SDS011;5065;46.942;7.432;2023-11-18T00:41:35;2.30;;;1.30;;
10050;SDS011;5065;46.942;7.432;2023-11-18T00:44:02;2.00;;;1.30;;
10050;SDS011;5065;46.942;7.432;2023-11-18T00:46:33;2.70;;;1.33;;
10050;SDS011;5065;46.942;7.432;2023-11-18T00:49:02;1.63;;;1.30;;
10050;SDS011;5065;46.942;7.432;2023-11-18T00:51:30;2.13;;;1.50;;
10050;SDS011;5065;46.942;7.432;2023-11-18T00:53:57;3.05;;;1.73;;
10050;SDS011;5065;46.942;7.432;2023-11-18T00:56:26;3.30;;;1.97;;
10050;SDS011;5065;46.942;7.432;2023-11-18T00:58:54;3.70;;;2.20;;
10050;SDS011;5065;46.942;7.432;2023-11-18T01:01:22;3.50;;;2.50;;
10050;SDS011;5065;46.942;7.432;2023-11-18T01:03:49;5.70;;;3.50;;
10050;SDS011;5065;46.942;7.432;2023-11-18T01:06:17;6.18;;;3.50;;
10050;SDS011;5065;46.942;7.432;2023-11-18T01:08:45;6.53;;;3.90;;
10050;SDS011;5065;46.942;7.432;2023-11-18T01:11:15;15.40;;;4.05;;
10050;SDS011;5065;46.942;7.432;2023-11-18T01:13:45;8.13;;;3.70;;
10050;SDS011;5065;46.942;7.432;2023-11-18T01:16:12;5.82;;;3.17;;
10050;SDS011;5065;46.942;7.432;2023-11-18T01:18:40;4.15;;;2.60;;
10050;SDS011;5065;46.942;7.432;2023-11-18T01:21:07;2.88;;;1.90;;
10050;SDS011;5065;46.942;7.432;2023-11-18T01:23:36;4.43;;;2.40;;
10050;SDS011;5065;46.942;7.432;2023-11-18T01:26:04;4.47;;;2.85;;
10050;SDS011;5065;46.942;7.432;2023-11-18T01:28:30;3.90;;;2.70;;
10050;SDS011;5065;46.942;7.432;2023-11-18T01:31:01;4.68;;;2.80;;
10050;SDS011;5065;46.942;7.432;2023-11-18T01:33:29;3.83;;;2.42;;
10050;SDS011;5065;46.942;7.432;2023-11-18T01:35:57;4.10;;;2.22;;
10050;SDS011;5065;46.942;7.432;2023-11-18T01:38:24;4.85;;;3.08;;
10050;SDS011;5065;46.942;7.432;2023-11-18T01:40:53;4.57;;;2.33;;
10050;SDS011;5065;46.942;7.432;2023-11-18T01:43:20;4.28;;;2.42;;
10050;SDS011;5065;46.942;7.432;2023-11-18T01:45:47;5.10;;;2.25;;
10050;SDS011;5065;46.942;7.432;2023-11-18T01:48:15;4.13;;;1.97;;
10050;SDS011;5065;46.942;7.432;2023-11-18T01:50:42;5.45;;;2.50;;
10050;SDS011;5065;46.942;7.432;2023-11-18T01:53:12;3.58;;;2.10;;
10050;SDS011;5065;46.942;7.432;2023-11-18T01:55:40;4.05;;;2.33;;
10050;SDS011;5065;46.942;7.432;2023-11-18T01:58:09;3.53;;;1.90;;
10050;SDS011;5065;46.942;7.432;2023-11-18T02:00:38;4.68;;;2.17;;
10050;SDS011;5065;46.942;7.432;2023-11-18T02:03:08;2.78;;;2.10;;
10050;SDS011;5065;46.942;7.432;2023-11-18T02:05:35;4.05;;;2.10;;
10050;SDS011;5065;46.942;7.432;2023-11-18T02:08:04;3.47;;;1.60;;
10050;SDS011;5065;46.942;7.432;2023-11-18T02:10:35;2.30;;;1.70;;
10050;SDS011;5065;46.942;7.432;2023-11-18T02:13:15;1.95;;;1.63;;
10050;SDS011;5065;46.942;7.432;2023-11-18T02:15:52;2.67;;;2.08;;
10050;SDS011;5065;46.942;7.432;2023-11-18T02:18:22;2.67;;;1.90;;
10050;SDS011;5065;46.942;7.432;2023-11-18T02:20:51;2.63;;;1.80;;
10050;SDS011;5065;46.942;7.432;2023-11-18T02:23:19;2.47;;;2.13;;
10050;SDS011;5065;46.942;7.432;2023-11-18T02:25:50;2.08;;;1.60;;
10050;SDS011;5065;46.942;7.432;2023-11-18T02:33:15;4.30;;;2.28;;
10050;SDS011;5065;46.942;7.432;2023-11-18T02:35:49;2.43;;;2.00;;
10050;SDS011;5065;46.942;7.432;2023-11-18T02:38:22;3.58;;;2.40;;
10050;SDS011;5065;46.942;7.432;2023-11-18T02:40:56;3.28;;;2.28;;
10050;SDS011;5065;46.942;7.432;2023-11-18T02:43:25;4.45;;;2.30;;
10050;SDS011;5065;46.942;7.432;2023-11-18T02:45:54;2.25;;;2.03;;
10050;SDS011;5065;46.942;7.432;2023-11-18T02:48:23;2.42;;;1.88;;
10050;SDS011;5065;46.942;7.432;2023-11-18T02:50:52;2.20;;;1.90;;
10050;SDS011;5065;46.942;7.432;2023-11-18T02:53:19;2.58;;;1.80;;
10050;SDS011;5065;46.942;7.432;2023-11-18T02:55:47;1.77;;;1.45;;
10050;SDS011;5065;46.942;7.432;2023-11-18T02:58:18;2.60;;;1.70;;
10050;SDS011;5065;46.942;7.432;2023-11-18T03:00:47;2.85;;;2.00;;
10050;SDS011;5065;46.942;7.432;2023-11-18T03:03:14;2.55;;;1.85;;
10050;SDS011;5065;46.942;7.432;2023-11-18T03:05:42;1.90;;;1.70;;
10050;SDS011;5065;46.942;7.432;2023-11-18T03:08:09;2.05;;;1.65;;
10050;SDS011;5065;46.942;7.432;2023-11-18T03:10:37;1.88;;;1.55;;
10050;SDS011;5065;46.942;7.432;2023-11-18T03:13:04;2.20;;;1.70;;
10050;SDS011;5065;46.942;7.432;2023-11-18T03:15:36;2.72;;;1.67;;
10050;SDS011;5065;46.942;7.432;2023-11-18T03:18:03;2.80;;;1.90;;
10050;SDS011;5065;46.942;7.432;2023-11-18T03:20:30;2.45;;;1.80;;
10050;SDS011;5065;46.942;7.432;2023-11-18T03:23:00;2.97;;;2.05;;
10050;SDS011;5065;46.942;7.432;2023-11-18T03:25:27;2.33;;;1.50;;
10050;SDS011;5065;46.942;7.432;2023-11-18T03:27:54;1.73;;;1.30;;
10050;SDS011;5065;46.942;7.432;2023-11-18T03:30:21;1.57;;;1.10;;
10050;SDS011;5065;46.942;7.432;2023-11-18T03:32:50;1.10;;;0.95;;
10050;SDS011;5065;46.942;7.432;2023-11-18T03:35:17;2.20;;;1.08;;
10050;SDS011;5065;46.942;7.432;2023-11-18T03:37:44;0.90;;;0.80;;
10050;SDS011;5065;46.942;7.432;2023-11-18T03:40:12;1.88;;;1.00;;
10050;SDS011;5065;46.942;7.432;2023-11-18T03:42:40;1.25;;;0.80;;
10050;SDS011;5065;46.942;7.432;2023-11-18T03:45:08;1.40;;;0.80;;
10050;SDS011;5065;46.942;7.432;2023-11-18T03:47:36;1.70;;;0.90;;
10050;SDS011;5065;46.942;7.432;2023-11-18T03:50:05;1.15;;;0.73;;
10050;SDS011;5065;46.942;7.432;2023-11-18T03:52:34;1.35;;;0.90;;
10050;SDS011;5065;46.942;7.432;2023-11-18T03:55:03;3.03;;;0.95;;
10050;SDS011;5065;46.942;7.432;2023-11-18T03:57:30;1.13;;;0.70;;
10050;SDS011;5065;46.942;7.432;2023-11-18T03:59:57;1.55;;;0.90;;
10050;SDS011;5065;46.942;7.432;2023-11-18T04:02:25;1.35;;;0.85;;
10050;SDS011;5065;46.942;7.432;2023-11-18T04:04:52;1.60;;;0.75;;
10050;SDS011;5065;46.942;7.432;2023-11-18T04:07:20;0.63;;;0.60;;
10050;SDS011;5065;46.942;7.432;2023-11-18T04:09:48;0.73;;;0.73;;
10050;SDS011;5065;46.942;7.432;2023-11-18T04:12:15;1.30;;;1.02;;
10050;SDS011;5065;46.942;7.432;2023-11-18T04:14:42;1.15;;;0.80;;
10050;SDS011;5065;46.942;7.432;2023-11-18T04:17:09;1.70;;;0.93;;
10050;SDS011;5065;46.942;7.432;2023-11-18T04:19:36;1.27;;;1.05;;
10050;SDS011;5065;46.942;7.432;2023-11-18T04:22:04;2.20;;;1.27;;
10050;SDS011;5065;46.942;7.432;2023-11-18T04:24:33;2.60;;;1.10;;
10050;SDS011;5065;46.942;7.432;2023-11-18T04:27:00;1.08;;;0.90;;
10050;SDS011;5065;46.942;7.432;2023-11-18T04:29:27;1.93;;;1.20;;
10050;SDS011;5065;46.942;7.432;2023-11-18T04:31:55;0.93;;;0.80;;
10050;SDS011;5065;46.942;7.432;2023-11-18T04:34:22;1.10;;;0.73;;
10050;SDS011;5065;46.942;7.432;2023-11-18T04:36:50;1.10;;;1.00;;
10050;SDS011;5065;46.942;7.432;2023-11-18T04:39:17;2.47;;;0.97;;
10050;SDS011;5065;46.942;7.432;2023-11-18T04:41:47;1.02;;;0.88;;
10050;SDS011;5065;46.942;7.432;2023-11-18T04:44:15;1.30;;;1.02;;
10050;SDS011;5065;46.942;7.432;2023-11-18T04:46:43;1.80;;;1.00;;
10050;SDS011;5065;46.942;7.432;2023-11-18T04:49:10;1.10;;;0.80;;
10050;SDS011;5065;46.942;7.432;2023-11-18T04:51:37;1.80;;;1.00;;
10050;SDS011;5065;46.942;7.432;2023-11-18T04:54:04;1.13;;;1.03;;
10050;SDS011;5065;46.942;7.432;2023-11-18T04:56:33;1.05;;;0.95;;
10050;SDS011;5065;46.942;7.432;2023-11-18T04:59:03;1.27;;;0.93;;
10050;SDS011;5065;46.942;7.432;2023-11-18T05:01:30;4.00;;;1.35;;
10050;SDS011;5065;46.942;7.432;2023-11-18T05:03:58;0.90;;;0.70;;
10050;SDS011;5065;46.942;7.432;2023-11-18T05:06:25;1.20;;;1.00;;
10050;SDS011;5065;46.942;7.432;2023-11-18T05:08:53;1.65;;;1.00;;
10050;SDS011;5065;46.942;7.432;2023-11-18T05:11:20;1.42;;;1.13;;
10050;SDS011;5065;46.942;7.432;2023-11-18T05:13:47;1.33;;;1.23;;
10050;SDS011;5065;46.942;7.432;2023-11-18T05:16:15;2.00;;;1.42;;
10050;SDS011;5065;46.942;7.432;2023-11-18T05:18:43;2.35;;;1.50;;
10050;SDS011;5065;46.942;7.432;2023-11-18T05:21:10;1.57;;;1.40;;
10050;SDS011;5065;46.942;7.432;2023-11-18T05:23:37;1.92;;;1.52;;
10050;SDS011;5065;46.942;7.432;2023-11-18T05:26:04;2.20;;;1.58;;
10050;SDS011;5065;46.942;7.432;2023-11-18T05:28:32;2.33;;;1.40;;
10050;SDS011;5065;46.942;7.432;2023-11-18T05:30:59;2.00;;;1.48;;
10050;SDS011;5065;46.942;7.432;2023-11-18T05:33:29;1.70;;;1.17;;
10050;SDS011;5065;46.942;7.432;2023-11-18T05:35:59;1.20;;;1.10;;
10050;SDS011;5065;46.942;7.432;2023-11-18T05:38:27;1.95;;;1.13;;
10050;SDS011;5065;46.942;7.432;2023-11-18T05:40:59;1.40;;;1.30;;
10050;SDS011;5065;46.942;7.432;2023-11-18T05:43:29;1.20;;;1.10;;
10050;SDS011;5065;46.942;7.432;2023-11-18T05:46:01;1.65;;;1.20;;
10050;SDS011;5065;46.942;7.432;2023-11-18T05:48:46;2.17;;;1.10;;
10050;SDS011;5065;46.942;7.432;2023-11-18T05:51:18;1.40;;;1.17;;
10050;SDS011;5065;46.942;7.432;2023-11-18T05:53:46;1.38;;;0.80;;
10050;SDS011;5065;46.942;7.432;2023-11-18T05:56:14;1.35;;;1.15;;
10050;SDS011;5065;46.942;7.432;2023-11-18T05:58:42;0.90;;;0.80;;
10050;SDS011;5065;46.942;7.432;2023-11-18T06:01:10;1.27;;;1.13;;
10050;SDS011;5065;46.942;7.432;2023-11-18T06:03:38;1.50;;;1.23;;
10050;SDS011;5065;46.942;7.432;2023-11-18T06:06:08;1.88;;;0.90;;
10050;SDS011;5065;46.942;7.432;2023-11-18T06:08:36;1.38;;;1.27;;
10050;SDS011;5065;46.942;7.432;2023-11-18T06:11:06;1.40;;;1.27;;
10050;SDS011;5065;46.942;7.432;2023-11-18T06:13:39;1.45;;;1.20;;
10050;SDS011;5065;46.942;7.432;2023-11-18T06:16:15;1.70;;;1.38;;
10050;SDS011;5065;46.942;7.432;2023-11-18T06:18:45;2.25;;;1.55;;
10050;SDS011;5065;46.942;7.432;2023-11-18T06:21:15;2.22;;;1.55;;
10050;SDS011;5065;46.942;7.432;2023-11-18T06:23:43;2.50;;;1.40;;
10050;SDS011;5065;46.942;7.432;2023-11-18T06:26:12;1.50;;;1.30;;
10050;SDS011;5065;46.942;7.432;2023-11-18T06:28:40;1.90;;;1.50;;
10050;SDS011;5065;46.942;7.432;2023-11-18T06:31:08;3.73;;;2.00;;
10050;SDS011;5065;46.942;7.432;2023-11-18T06:33:37;5.55;;;3.75;;
10050;SDS011;5065;46.942;7.432;2023-11-18T06:36:08;4.88;;;1.75;;
10050;SDS011;5065;46.942;7.432;2023-11-18T06:38:40;2.05;;;1.40;;
10050;SDS011;5065;46.942;7.432;2023-11-18T06:41:09;1.57;;;1.17;;
10050;SDS011;5065;46.942;7.432;2023-11-18T06:43:39;1.77;;;1.40;;
10050;SDS011;5065;46.942;7.432;2023-11-18T06:46:17;1.80;;;1.50;;
10050;SDS011;5065;46.942;7.432;2023-11-18T06:48:47;5.50;;;1.40;;
10050;SDS011;5065;46.942;7.432;2023-11-18T06:51:15;1.43;;;1.30;;
10050;SDS011;5065;46.942;7.432;2023-11-18T06:53:44;1.15;;;1.10;;
10050;SDS011;5065;46.942;7.432;2023-11-18T06:56:12;1.40;;;1.30;;
10050;SDS011;5065;46.942;7.432;2023-11-18T06:58:41;1.73;;;1.63;;
10050;SDS011;5065;46.942;7.432;2023-11-18T07:01:08;3.70;;;1.75;;
10050;SDS011;5065;46.942;7.432;2023-11-18T07:03:35;5.40;;;2.38;;
10050;SDS011;5065;46.942;7.432;2023-11-18T07:06:03;2.00;;;1.60;;
10050;SDS011;5065;46.942;7.432;2023-11-18T07:08:31;4.25;;;1.48;;
10050;SDS011;5065;46.942;7.432;2023-11-18T07:11:02;2.58;;;1.60;;
10050;SDS011;5065;46.942;7.432;2023-11-18T07:13:31;1.90;;;1.40;;
10050;SDS011;5065;46.942;7.432;2023-11-18T07:16:00;3.03;;;1.70;;
10050;SDS011;5065;46.942;7.432;2023-11-18T07:18:29;2.45;;;1.48;;
10050;SDS011;5065;46.942;7.432;2023-11-18T07:20:56;2.23;;;1.80;;
10050;SDS011;5065;46.942;7.432;2023-11-18T07:23:25;1.40;;;1.30;;
10050;SDS011;5065;46.942;7.432;2023-11-18T07:25:52;2.83;;;1.80;;
10050;SDS011;5065;46.942;7.432;2023-11-18T07:28:22;2.13;;;1.23;;
10050;SDS011;5065;46.942;7.432;2023-11-18T07:30:51;1.63;;;1.20;;
10050;SDS011;5065;46.942;7.432;2023-11-18T07:33:19;1.50;;;1.33;;
10050;SDS011;5065;46.942;7.432;2023-11-18T07:35:46;1.55;;;1.40;;
10050;SDS011;5065;46.942;7.432;2023-11-18T07:38:14;1.40;;;1.30;;
10050;SDS011;5065;46.942;7.432;2023-11-18T07:40:43;2.47;;;1.33;;
10050;SDS011;5065;46.942;7.432;2023-11-18T07:43:11;2.13;;;1.20;;
10050;SDS011;5065;46.942;7.432;2023-11-18T07:45:39;3.50;;;1.42;;
10050;SDS011;5065;46.942;7.432;2023-11-18T07:48:07;1.40;;;1.30;;
10050;SDS011;5065;46.942;7.432;2023-11-18T07:50:37;2.60;;;1.40;;
10050;SDS011;5065;46.942;7.432;2023-11-18T07:53:06;1.90;;;1.30;;
10050;SDS011;5065;46.942;7.432;2023-11-18T07:55:35;1.45;;;1.25;;
10050;SDS011;5065;46.942;7.432;2023-11-18T07:58:04;1.10;;;1.00;;
10050;SDS011;5065;46.942;7.432;2023-11-18T08:00:36;1.40;;;1.05;;
10050;SDS011;5065;46.942;7.432;2023-11-18T08:03:05;1.98;;;1.00;;
10050;SDS011;5065;46.942;7.432;2023-11-18T08:05:36;3.00;;;1.50;;
10050;SDS011;5065;46.942;7.432;2023-11-18T08:08:04;1.67;;;1.55;;
10050;SDS011;5065;46.942;7.432;2023-11-18T08:10:32;1.80;;;1.27;;
10050;SDS011;5065;46.942;7.432;2023-11-18T08:13:03;1.60;;;1.05;;
10050;SDS011;5065;46.942;7.432;2023-11-18T08:15:35;1.27;;;1.17;;
10050;SDS011;5065;46.942;7.432;2023-11-18T08:18:07;1.40;;;1.30;;
10050;SDS011;5065;46.942;7.432;2023-11-18T08:20:35;1.75;;;1.55;;
10050;SDS011;5065;46.942;7.432;2023-11-18T08:23:02;2.05;;;1.52;;
10050;SDS011;5065;46.942;7.432;2023-11-18T08:25:31;1.65;;;1.30;;
10050;SDS011;5065;46.942;7.432;2023-11-18T08:27:59;1.88;;;1.42;;
10050;SDS011;5065;46.942;7.432;2023-11-18T08:30:27;1.50;;;1.40;;
10050;SDS011;5065;46.942;7.432;2023-11-18T08:32:54;2.35;;;1.42;;
10050;SDS011;5065;46.942;7.432;2023-11-18T08:35:24;2.65;;;1.65;;
10050;SDS011;5065;46.942;7.432;2023-11-18T08:37:51;2.20;;;1.40;;
10050;SDS011;5065;46.942;7.432;2023-11-18T08:40:18;1.73;;;1.60;;
10050;SDS011;5065;46.942;7.432;2023-11-18T08:42:47;1.55;;;1.40;;
10050;SDS011;5065;46.942;7.432;2023-11-18T08:45:16;2.50;;;1.50;;
10050;SDS011;5065;46.942;7.432;2023-11-18T08:47:44;1.63;;;1.50;;
10050;SDS011;5065;46.942;7.432;2023-11-18T08:50:12;2.60;;;1.80;;
10050;SDS011;5065;46.942;7.432;2023-11-18T08:52:43;2.17;;;1.67;;
10050;SDS011;5065;46.942;7.432;2023-11-18T08:55:12;2.55;;;1.75;;
10050;SDS011;5065;46.942;7.432;2023-11-18T08:57:44;1.50;;;1.40;;
10050;SDS011;5065;46.942;7.432;2023-11-18T09:00:24;1.88;;;1.30;;
10050;SDS011;5065;46.942;7.432;2023-11-18T09:03:10;1.60;;;1.38;;
10050;SDS011;5065;46.942;7.432;2023-11-18T09:05:43;3.03;;;1.20;;
10050;SDS011;5065;46.942;7.432;2023-11-18T09:08:23;1.10;;;1.10;;
10050;SDS011;5065;46.942;7.432;2023-11-18T09:10:52;1.80;;;1.13;;
10050;SDS011;5065;46.942;7.432;2023-11-18T09:13:20;1.40;;;1.20;;
10050;SDS011;5065;46.942;7.432;2023-11-18T09:15:49;2.08;;;1.13;;
10050;SDS011;5065;46.942;7.432;2023-11-18T09:18:16;1.33;;;1.20;;
10050;SDS011;5065;46.942;7.432;2023-11-18T09:20:45;1.25;;;1.02;;
10050;SDS011;5065;46.942;7.432;2023-11-18T09:23:12;1.00;;;0.90;;
10050;SDS011;5065;46.942;7.432;2023-11-18T09:25:42;1.42;;;1.30;;
10050;SDS011;5065;46.942;7.432;2023-11-18T09:28:12;1.20;;;1.02;;
10050;SDS011;5065;46.942;7.432;2023-11-18T09:30:41;1.08;;;0.77;;
10050;SDS011;5065;46.942;7.432;2023-11-18T09:33:17;1.45;;;0.95;;
10050;SDS011;5065;46.942;7.432;2023-11-18T09:35:51;2.63;;;0.90;;
10050;SDS011;5065;46.942;7.432;2023-11-18T09:38:24;2.73;;;1.20;;
10050;SDS011;5065;46.942;7.432;2023-11-18T09:40:55;1.40;;;0.90;;
10050;SDS011;5065;46.942;7.432;2023-11-18T09:43:28;2.07;;;0.93;;
10050;SDS011;5065;46.942;7.432;2023-11-18T09:46:04;1.73;;;1.38;;
10050;SDS011;5065;46.942;7.432;2023-11-18T09:48:38;3.47;;;1.10;;
10050;SDS011;5065;46.942;7.432;2023-11-18T09:51:10;1.95;;;1.10;;
10050;SDS011;5065;46.942;7.432;2023-11-18T09:53:48;1.80;;;1.42;;
10050;SDS011;5065;46.942;7.432;2023-11-18T09:56:23;2.08;;;1.50;;
10050;SDS011;5065;46.942;7.432;2023-11-18T09:59:05;2.35;;;1.50;;
10050;SDS011;5065;46.942;7.432;2023-11-18T10:01:41;1.73;;;1.50;;
10050;SDS011;5065;46.942;7.432;2023-11-18T10:04:11;2.38;;;1.58;;
10050;SDS011;5065;46.942;7.432;2023-11-18T10:06:43;2.50;;;1.63;;
10050;SDS011;5065;46.942;7.432;2023-11-18T10:09:12;3.22;;;1.40;;
10050;SDS011;5065;46.942;7.432;2023-11-18T10:11:45;2.63;;;1.50;;
10050;SDS011;5065;46.942;7.432;2023-11-18T10:14:14;1.90;;;1.65;;
10050;SDS011;5065;46.942;7.432;2023-11-18T10:16:42;5.35;;;3.20;;
10050;SDS011;5065;46.942;7.432;2023-11-18T10:19:12;4.55;;;3.78;;
10050;SDS011;5065;46.942;7.432;2023-11-18T10:21:39;1.98;;;1.40;;
10050;SDS011;5065;46.942;7.432;2023-11-18T10:24:07;2.25;;;1.75;;
10050;SDS011;5065;46.942;7.432;2023-11-18T10:26:40;2.60;;;1.35;;
10050;SDS011;5065;46.942;7.432;2023-11-18T10:29:11;1.67;;;0.90;;
10050;SDS011;5065;46.942;7.432;2023-11-18T10:31:38;1.52;;;1.30;;
10050;SDS011;5065;46.942;7.432;2023-11-18T10:34:10;2.03;;;1.10;;
10050;SDS011;5065;46.942;7.432;2023-11-18T10:36:41;1.10;;;0.85;;
10050;SDS011;5065;46.942;7.432;2023-11-18T10:39:27;1.27;;;0.95;;
10050;SDS011;5065;46.942;7.432;2023-11-18T10:42:01;1.42;;;1.15;;
10050;SDS011;5065;46.942;7.432;2023-11-18T10:44:30;1.27;;;1.00;;
10050;SDS011;5065;46.942;7.432;2023-11-18T10:46:57;3.38;;;1.00;;
10050;SDS011;5065;46.942;7.432;2023-11-18T10:49:26;1.35;;;1.23;;
10050;SDS011;5065;46.942;7.432;2023-11-18T10:51:54;1.75;;;1.20;;
10050;SDS011;5065;46.942;7.432;2023-11-18T10:54:22;5.80;;;3.67;;
10050;SDS011;5065;46.942;7.432;2023-11-18T10:56:51;12.25;;;6.53;;
10050;SDS011;5065;46.942;7.432;2023-11-18T10:59:22;3.83;;;2.05;;
10050;SDS011;5065;46.942;7.432;2023-11-18T11:01:51;1.83;;;1.48;;
10050;SDS011;5065;46.942;7.432;2023-11-18T11:04:23;2.78;;;1.48;;
10050;SDS011;5065;46.942;7.432;2023-11-18T11:06:50;2.05;;;1.40;;
10050;SDS011;5065;46.942;7.432;2023-11-18T11:09:22;2.22;;;1.33;;
10050;SDS011;5065;46.942;7.432;2023-11-18T11:11:53;12.45;;;5.70;;
10050;SDS011;5065;46.942;7.432;2023-11-18T11:14:31;3.47;;;2.03;;
10050;SDS011;5065;46.942;7.432;2023-11-18T11:17:04;2.35;;;1.52;;
10050;SDS011;5065;46.942;7.432;2023-11-18T11:19:39;3.00;;;1.73;;
10050;SDS011;5065;46.942;7.432;2023-11-18T11:22:22;2.30;;;1.30;;
10050;SDS011;5065;46.942;7.432;2023-11-18T11:24:54;1.92;;;1.73;;
10050;SDS011;5065;46.942;7.432;2023-11-18T11:27:38;3.33;;;1.60;;
10050;SDS011;5065;46.942;7.432;2023-11-18T11:30:20;1.38;;;1.27;;
10050;SDS011;5065;46.942;7.432;2023-11-18T11:32:50;3.80;;;1.67;;
10050;SDS011;5065;46.942;7.432;2023-11-18T11:35:21;2.00;;;1.60;;
10050;SDS011;5065;46.942;7.432;2023-11-18T11:37:50;2.17;;;1.50;;
10050;SDS011;5065;46.942;7.432;2023-11-18T11:40:22;2.13;;;1.42;;
10050;SDS011;5065;46.942;7.432;2023-11-18T11:42:50;2.63;;;1.42;;
10050;SDS011;5065;46.942;7.432;2023-11-18T11:45:22;3.13;;;1.73;;
10050;SDS011;5065;46.942;7.432;2023-11-18T11:47:54;2.10;;;1.60;;
10050;SDS011;5065;46.942;7.432;2023-11-18T11:50:43;1.65;;;1.40;;
10050;SDS011;5065;46.942;7.432;2023-11-18T11:53:22;2.88;;;1.20;;
10050;SDS011;5065;46.942;7.432;2023-11-18T11:55:53;2.10;;;1.17;;
10050;SDS011;5065;46.942;7.432;2023-11-18T11:58:30;2.50;;;1.50;;
10050;SDS011;5065;46.942;7.432;2023-11-18T12:01:00;3.83;;;1.70;;
10050;SDS011;5065;46.942;7.432;2023-11-18T12:03:33;2.55;;;1.45;;
10050;SDS011;5065;46.942;7.432;2023-11-18T12:06:05;2.70;;;1.92;;
10050;SDS011;5065;46.942;7.432;2023-11-18T12:08:35;3.17;;;2.00;;
10050;SDS011;5065;46.942;7.432;2023-11-18T12:11:04;2.33;;;1.40;;
10050;SDS011;5065;46.942;7.432;2023-11-18T12:13:35;3.10;;;1.77;;
10050;SDS011;5065;46.942;7.432;2023-11-18T12:16:07;3.03;;;1.60;;
10050;SDS011;5065;46.942;7.432;2023-11-18T12:18:35;3.10;;;2.20;;
10050;SDS011;5065;46.942;7.432;2023-11-18T12:21:03;3.00;;;2.10;;
10050;SDS011;5065;46.942;7.432;2023-11-18T12:23:30;3.65;;;2.47;;
10050;SDS011;5065;46.942;7.432;2023-11-18T12:25:59;6.32;;;2.45;;
10050;SDS011;5065;46.942;7.432;2023-11-18T12:28:28;3.70;;;2.60;;
10050;SDS011;5065;46.942;7.432;2023-11-18T12:31:00;2.70;;;2.15;;
10050;SDS011;5065;46.942;7.432;2023-11-18T12:34:01;3.50;;;1.75;;
10050;SDS011;5065;46.942;7.432;2023-11-18T12:36:41;2.25;;;1.70;;
10050;SDS011;5065;46.942;7.432;2023-11-18T12:39:35;2.60;;;1.77;;
10050;SDS011;5065;46.942;7.432;2023-11-18T12:42:58;2.53;;;1.45;;
10050;SDS011;5065;46.942;7.432;2023-11-18T12:48:41;2.08;;;1.55;;
10050;SDS011;5065;46.942;7.432;2023-11-18T12:51:13;1.42;;;1.13;;
10050;SDS011;5065;46.942;7.432;2023-11-18T12:53:47;3.20;;;2.13;;
10050;SDS011;5065;46.942;7.432;2023-11-18T12:56:16;1.70;;;1.30;;
10050;SDS011;5065;46.942;7.432;2023-11-18T12:58:45;1.92;;;1.35;;
10050;SDS011;5065;46.942;7.432;2023-11-18T13:01:12;1.83;;;1.38;;
10050;SDS011;5065;46.942;7.432;2023-11-18T13:03:41;2.65;;;1.30;;
10050;SDS011;5065;46.942;7.432;2023-11-18T13:06:09;2.43;;;1.40;;
10050;SDS011;5065;46.942;7.432;2023-11-18T13:08:38;2.50;;;1.50;;
10050;SDS011;5065;46.942;7.432;2023-11-18T13:11:06;1.63;;;1.30;;
10050;SDS011;5065;46.942;7.432;2023-11-18T13:13:41;1.90;;;1.00;;
10050;SDS011;5065;46.942;7.432;2023-11-18T13:16:08;3.25;;;1.58;;
10050;SDS011;5065;46.942;7.432;2023-11-18T13:18:42;2.83;;;1.60;;
10050;SDS011;5065;46.942;7.432;2023-11-18T13:21:15;2.88;;;1.60;;
10050;SDS011;5065;46.942;7.432;2023-11-18T13:23:49;4.53;;;1.75;;
10050;SDS011;5065;46.942;7.432;2023-11-18T13:26:19;1.83;;;1.58;;
10050;SDS011;5065;46.942;7.432;2023-11-18T13:28:47;2.75;;;1.40;;
10050;SDS011;5065;46.942;7.432;2023-11-18T13:31:16;3.25;;;1.48;;
10050;SDS011;5065;46.942;7.432;2023-11-18T13:33:46;3.23;;;1.10;;
10050;SDS011;5065;46.942;7.432;2023-11-18T13:36:14;3.10;;;1.70;;
10050;SDS011;5065;46.942;7.432;2023-11-18T13:38:41;1.77;;;1.30;;
10050;SDS011;5065;46.942;7.432;2023-11-18T13:41:10;2.17;;;1.45;;
10050;SDS011;5065;46.942;7.432;2023-11-18T13:43:41;2.33;;;1.33;;
10050;SDS011;5065;46.942;7.432;2023-11-18T13:46:12;2.13;;;1.30;;
10050;SDS011;5065;46.942;7.432;2023-11-18T13:48:40;2.20;;;1.55;;
10050;SDS011;5065;46.942;7.432;2023-11-18T13:51:08;2.78;;;1.30;;
10050;SDS011;5065;46.942;7.432;2023-11-18T13:53:39;2.17;;;1.40;;
10050;SDS011;5065;46.942;7.432;2023-11-18T13:56:09;1.98;;;1.45;;
10050;SDS011;5065;46.942;7.432;2023-11-18T13:58:38;2.95;;;2.03;;
10050;SDS011;5065;46.942;7.432;2023-11-18T14:01:05;3.42;;;1.95;;
10050;SDS011;5065;46.942;7.432;2023-11-18T14:03:34;3.35;;;2.28;;
10050;SDS011;5065;46.942;7.432;2023-11-18T14:06:02;3.53;;;2.00;;
10050;SDS011;5065;46.942;7.432;2023-11-18T14:08:32;3.53;;;1.98;;
10050;SDS011;5065;46.942;7.432;2023-11-18T14:11:00;3.30;;;2.05;;
10050;SDS011;5065;46.942;7.432;2023-11-18T14:13:29;3.83;;;2.40;;
10050;SDS011;5065;46.942;7.432;2023-11-18T14:15:56;2.75;;;2.08;;
10050;SDS011;5065;46.942;7.432;2023-11-18T14:18:24;1.88;;;1.55;;
10050;SDS011;5065;46.942;7.432;2023-11-18T14:20:52;2.78;;;1.67;;
10050;SDS011;5065;46.942;7.432;2023-11-18T14:23:20;2.83;;;1.30;;
10050;SDS011;5065;46.942;7.432;2023-11-18T14:25:48;2.28;;;1.42;;
10050;SDS011;5065;46.942;7.432;2023-11-18T14:28:15;2.08;;;1.55;;
10050;SDS011;5065;46.942;7.432;2023-11-18T14:30:44;1.92;;;1.27;;
10050;SDS011;5065;46.942;7.432;2023-11-18T14:33:11;2.67;;;1.42;;
10050;SDS011;5065;46.942;7.432;2023-11-18T14:35:38;1.45;;;1.25;;
10050;SDS011;5065;46.942;7.432;2023-11-18T14:38:05;4.63;;;1.50;;
10050;SDS011;5065;46.942;7.432;2023-11-18T14:40:33;2.50;;;1.27;;
10050;SDS011;5065;46.942;7.432;2023-11-18T14:43:01;2.05;;;1.50;;
10050;SDS011;5065;46.942;7.432;2023-11-18T14:45:29;3.63;;;1.60;;
10050;SDS011;5065;46.942;7.432;2023-11-18T14:47:59;1.60;;;1.30;;
10050;SDS011;5065;46.942;7.432;2023-11-18T14:50:26;3.80;;;1.77;;
10050;SDS011;5065;46.942;7.432;2023-11-18T14:52:53;4.13;;;1.75;;
10050;SDS011;5065;46.942;7.432;2023-11-18T14:55:24;2.70;;;1.70;;
10050;SDS011;5065;46.942;7.432;2023-11-18T14:57:52;2.17;;;1.70;;
10050;SDS011;5065;46.942;7.432;2023-11-18T15:00:20;4.63;;;2.00;;
10050;SDS011;5065;46.942;7.432;2023-11-18T15:02:50;2.63;;;1.95;;
10050;SDS011;5065;46.942;7.432;2023-11-18T15:05:20;2.70;;;1.90;;
10050;SDS011;5065;46.942;7.432;2023-11-18T15:07:49;2.00;;;1.80;;
10050;SDS011;5065;46.942;7.432;2023-11-18T15:10:18;2.42;;;1.75;;
10050;SDS011;5065;46.942;7.432;2023-11-18T15:12:46;1.93;;;1.70;;
10050;SDS011;5065;46.942;7.432;2023-11-18T15:15:18;2.58;;;2.03;;
10050;SDS011;5065;46.942;7.432;2023-11-18T15:17:46;4.13;;;2.03;;
10050;SDS011;5065;46.942;7.432;2023-11-18T15:20:14;2.10;;;1.80;;
10050;SDS011;5065;46.942;7.432;2023-11-18T15:22:45;4.40;;;2.13;;
10050;SDS011;5065;46.942;7.432;2023-11-18T15:25:12;4.45;;;2.33;;